sensor_id;sensor_type;location;lat;lon;timestamp;temperature;humidity
21811;DHT22;11067;48.788;9.208;2023-04-03T00:00:56;4.50;99.90
21811;DHT22;11067;48.788;9.208;2023-04-03T00:03:22;4.40;99.90
21811;DHT22;11067;48.788;9.208;2023-04-03T00:05:48;4.40;99.90
21811;DHT22;11067;48.788;9.208;2023-04-03T00:08:14;4.50;99.90
21811;DHT22;11067;48.788;9.208;2023-04-03T00:10:40;4.60;99.90
21811;DHT22;11067;48.788;9.208;2023-04-03T00:13:07;4.50;99.90
21811;DHT22;11067;48.788;9.208;2023-04-03T00:15:34;4.50;99.90
21811;DHT22;11067;48.788;9.208;2023-04-03T00:17:59;4.40;99.90
21811;DHT22;11067;48.788;9.208;2023-04-03T00:20:25;4.50;99.90
21811;DHT22;11067;48.788;9.208;2023-04-03T00:22:51;4.50;99.90
21811;DHT22;11067;48.788;9.208;2023-04-03T00:25:17;4.50;99.90
21811;DHT22;11067;48.788;9.208;2023-04-03T00:27:42;4.60;99.90
21811;DHT22;11067;48.788;9.208;2023-04-03T00:30:09;4.60;99.90
21811;DHT22;11067;48.788;9.208;2023-04-03T00:32:36;4.50;99.90
21811;DHT22;11067;48.788;9.208;2023-04-03T00:35:01;4.70;99.90
21811;DHT22;11067;48.788;9.208;2023-04-03T00:37:27;4.60;99.90
21811;DHT22;11067;48.788;9.208;2023-04-03T00:39:52;4.50;99.90
21811;DHT22;11067;48.788;9.208;2023-04-03T00:42:18;4.50;99.90
21811;DHT22;11067;48.788;9.208;2023-04-03T00:47:12;4.40;99.90
21811;DHT22;11067;48.788;9.208;2023-04-03T00:49:38;4.40;99.90
21811;DHT22;11067;48.788;9.208;2023-04-03T00:52:07;4.40;99.90
21811;DHT22;11067;48.788;9.208;2023-04-03T00:54:36;4.40;99.90
21811;DHT22;11067;48.788;9.208;2023-04-03T00:57:03;4.40;99.90
21811;DHT22;11067;48.788;9.208;2023-04-03T00:59:34;4.40;99.90
21811;DHT22;11067;48.788;9.208;2023-04-03T01:02:01;4.40;99.90
21811;DHT22;11067;48.788;9.208;2023-04-03T01:04:33;4.40;99.90
21811;DHT22;11067;48.788;9.208;2023-04-03T01:07:08;4.40;99.90
21811;DHT22;11067;48.788;9.208;2023-04-03T01:09:35;4.40;99.90
21811;DHT22;11067;48.788;9.208;2023-04-03T01:12:20;4.30;99.90
21811;DHT22;11067;48.788;9.208;2023-04-03T01:14:58;4.30;99.90
21811;DHT22;11067;48.788;9.208;2023-04-03T01:20:00;4.30;99.90
21811;DHT22;11067;48.788;9.208;2023-04-03T01:22:34;4.30;99.90
21811;DHT22;11067;48.788;9.208;2023-04-03T01:25:07;4.30;99.90
21811;DHT22;11067;48.788;9.208;2023-04-03T01:27:33;4.30;99.90
21811;DHT22;11067;48.788;9.208;2023-04-03T01:29:58;4.20;99.90
21811;DHT22;11067;48.788;9.208;2023-04-03T01:32:24;4.30;99.90
21811;DHT22;11067;48.788;9.208;2023-04-03T01:34:50;4.30;99.90
21811;DHT22;11067;48.788;9.208;2023-04-03T01:37:15;4.20;99.90
21811;DHT22;11067;48.788;9.208;2023-04-03T01:39:41;4.20;99.90
21811;DHT22;11067;48.788;9.208;2023-04-03T01:42:06;4.20;99.90
21811;DHT22;11067;48.788;9.208;2023-04-03T01:44:32;4.10;99.90
21811;DHT22;11067;48.788;9.208;2023-04-03T01:46:57;4.20;99.90
21811;DHT22;11067;48.788;9.208;2023-04-03T01:49:23;4.20;99.90
21811;DHT22;11067;48.788;9.208;2023-04-03T01:51:48;4.20;99.90
21811;DHT22;11067;48.788;9.208;2023-04-03T01:54:14;4.20;99.90
21811;DHT22;11067;48.788;9.208;2023-04-03T01:56:39;4.20;99.90
21811;DHT22;11067;48.788;9.208;2023-04-03T01:59:05;4.20;99.90
21811;DHT22;11067;48.788;9.208;2023-04-03T02:01:30;4.20;99.90
21811;DHT22;11067;48.788;9.208;2023-04-03T02:03:56;4.10;99.90
21811;DHT22;11067;48.788;9.208;2023-04-03T02:06:21;4.20;99.90
21811;DHT22;11067;48.788;9.208;2023-04-03T02:08:47;4.20;99.90
21811;DHT22;11067;48.788;9.208;2023-04-03T02:11:12;4.10;99.90
21811;DHT22;11067;48.788;9.208;2023-04-03T02:13:38;4.00;99.90
21811;DHT22;11067;48.788;9.208;2023-04-03T02:16:09;4.00;99.90
21811;DHT22;11067;48.788;9.208;2023-04-03T02:18:35;4.00;99.90
21811;DHT22;11067;48.788;9.208;2023-04-03T02:21:01;4.00;99.90
21811;DHT22;11067;48.788;9.208;2023-04-03T02:23:26;3.90;99.90
21811;DHT22;11067;48.788;9.208;2023-04-03T02:25:52;3.90;99.90
21811;DHT22;11067;48.788;9.208;2023-04-03T02:28:17;3.90;99.90
21811;DHT22;11067;48.788;9.208;2023-04-03T02:30:42;4.00;99.90
21811;DHT22;11067;48.788;9.208;2023-04-03T02:33:08;4.00;99.90
21811;DHT22;11067;48.788;9.208;2023-04-03T02:35:33;4.00;99.90
21811;DHT22;11067;48.788;9.208;2023-04-03T02:37:59;4.00;99.90
21811;DHT22;11067;48.788;9.208;2023-04-03T02:40:25;4.00;99.90
21811;DHT22;11067;48.788;9.208;2023-04-03T02:42:50;4.00;99.90
21811;DHT22;11067;48.788;9.208;2023-04-03T02:45:16;4.00;99.90
21811;DHT22;11067;48.788;9.208;2023-04-03T02:47:41;4.00;99.90
21811;DHT22;11067;48.788;9.208;2023-04-03T02:50:07;4.00;99.90
21811;DHT22;11067;48.788;9.208;2023-04-03T02:52:32;4.00;99.90
21811;DHT22;11067;48.788;9.208;2023-04-03T02:54:58;4.10;99.90
21811;DHT22;11067;48.788;9.208;2023-04-03T02:57:24;4.10;99.90
21811;DHT22;11067;48.788;9.208;2023-04-03T02:59:49;4.10;99.90
21811;DHT22;11067;48.788;9.208;2023-04-03T03:02:15;4.10;99.90
21811;DHT22;11067;48.788;9.208;2023-04-03T03:04:40;4.10;99.90
21811;DHT22;11067;48.788;9.208;2023-04-03T03:07:06;4.10;99.90
21811;DHT22;11067;48.788;9.208;2023-04-03T03:09:31;4.00;99.90
21811;DHT22;11067;48.788;9.208;2023-04-03T03:11:57;4.00;99.90
21811;DHT22;11067;48.788;9.208;2023-04-03T03:14:23;4.10;99.90
21811;DHT22;11067;48.788;9.208;2023-04-03T03:16:48;4.10;99.90
21811;DHT22;11067;48.788;9.208;2023-04-03T03:19:14;4.10;99.90
21811;DHT22;11067;48.788;9.208;2023-04-03T03:21:40;4.10;99.90
21811;DHT22;11067;48.788;9.208;2023-04-03T03:24:06;4.10;99.90
21811;DHT22;11067;48.788;9.208;2023-04-03T03:26:31;4.10;99.90
21811;DHT22;11067;48.788;9.208;2023-04-03T03:28:57;4.10;99.90
21811;DHT22;11067;48.788;9.208;2023-04-03T03:31:23;4.00;99.90
21811;DHT22;11067;48.788;9.208;2023-04-03T03:33:48;4.00;99.90
21811;DHT22;11067;48.788;9.208;2023-04-03T03:36:14;4.10;99.90
21811;DHT22;11067;48.788;9.208;2023-04-03T03:38:39;4.10;99.90
21811;DHT22;11067;48.788;9.208;2023-04-03T03:41:05;4.20;99.90
21811;DHT22;11067;48.788;9.208;2023-04-03T03:43:31;4.10;99.90
21811;DHT22;11067;48.788;9.208;2023-04-03T03:45:57;4.00;99.90
21811;DHT22;11067;48.788;9.208;2023-04-03T03:48:22;4.00;99.90
21811;DHT22;11067;48.788;9.208;2023-04-03T03:50:48;4.00;99.90
21811;DHT22;11067;48.788;9.208;2023-04-03T03:53:14;4.00;99.90
21811;DHT22;11067;48.788;9.208;2023-04-03T03:55:40;4.10;99.90
21811;DHT22;11067;48.788;9.208;2023-04-03T03:58:06;4.10;99.90
21811;DHT22;11067;48.788;9.208;2023-04-03T04:00:32;4.10;99.90
21811;DHT22;11067;48.788;9.208;2023-04-03T04:02:58;4.10;99.90
21811;DHT22;11067;48.788;9.208;2023-04-03T04:05:24;4.10;99.90
21811;DHT22;11067;48.788;9.208;2023-04-03T04:07:49;4.00;99.90
21811;DHT22;11067;48.788;9.208;2023-04-03T04:10:16;4.10;99.90
21811;DHT22;11067;48.788;9.208;2023-04-03T04:12:41;4.10;99.90
21811;DHT22;11067;48.788;9.208;2023-04-03T04:15:07;4.10;99.90
21811;DHT22;11067;48.788;9.208;2023-04-03T04:17:33;4.10;99.90
21811;DHT22;11067;48.788;9.208;2023-04-03T04:20:00;4.10;99.90
21811;DHT22;11067;48.788;9.208;2023-04-03T04:22:26;4.10;99.90
21811;DHT22;11067;48.788;9.208;2023-04-03T04:24:51;4.10;99.90
21811;DHT22;11067;48.788;9.208;2023-04-03T04:27:17;4.10;99.90
21811;DHT22;11067;48.788;9.208;2023-04-03T04:29:43;4.10;99.90
21811;DHT22;11067;48.788;9.208;2023-04-03T04:32:08;4.10;99.90
21811;DHT22;11067;48.788;9.208;2023-04-03T04:34:34;4.10;99.90
21811;DHT22;11067;48.788;9.208;2023-04-03T04:37:00;4.10;99.90
21811;DHT22;11067;48.788;9.208;2023-04-03T04:39:25;4.10;99.90
21811;DHT22;11067;48.788;9.208;2023-04-03T04:41:51;4.20;99.90
21811;DHT22;11067;48.788;9.208;2023-04-03T04:44:16;4.10;99.90
21811;DHT22;11067;48.788;9.208;2023-04-03T04:46:42;4.10;99.90
21811;DHT22;11067;48.788;9.208;2023-04-03T04:49:08;4.10;99.90
21811;DHT22;11067;48.788;9.208;2023-04-03T04:51:33;4.10;99.90
21811;DHT22;11067;48.788;9.208;2023-04-03T04:53:59;4.10;99.90
21811;DHT22;11067;48.788;9.208;2023-04-03T04:56:24;4.20;99.90
21811;DHT22;11067;48.788;9.208;2023-04-03T04:58:50;4.20;99.90
21811;DHT22;11067;48.788;9.208;2023-04-03T05:01:16;4.20;99.90
21811;DHT22;11067;48.788;9.208;2023-04-03T05:03:41;4.20;99.90
21811;DHT22;11067;48.788;9.208;2023-04-03T05:06:07;4.20;99.90
21811;DHT22;11067;48.788;9.208;2023-04-03T05:08:32;4.20;99.90
21811;DHT22;11067;48.788;9.208;2023-04-03T05:10:58;4.20;99.90
21811;DHT22;11067;48.788;9.208;2023-04-03T05:13:23;4.20;99.90
21811;DHT22;11067;48.788;9.208;2023-04-03T05:15:49;4.20;99.90
21811;DHT22;11067;48.788;9.208;2023-04-03T05:18:14;4.20;99.90
21811;DHT22;11067;48.788;9.208;2023-04-03T05:20:40;4.30;99.90
21811;DHT22;11067;48.788;9.208;2023-04-03T05:23:06;4.30;99.90
21811;DHT22;11067;48.788;9.208;2023-04-03T05:25:32;4.40;99.90
21811;DHT22;11067;48.788;9.208;2023-04-03T05:27:57;4.40;99.90
21811;DHT22;11067;48.788;9.208;2023-04-03T05:30:23;4.30;99.90
21811;DHT22;11067;48.788;9.208;2023-04-03T05:32:48;4.30;99.90
21811;DHT22;11067;48.788;9.208;2023-04-03T05:35:14;4.30;99.90
21811;DHT22;11067;48.788;9.208;2023-04-03T05:37:40;4.40;99.90
21811;DHT22;11067;48.788;9.208;2023-04-03T05:40:06;4.30;99.90
21811;DHT22;11067;48.788;9.208;2023-04-03T05:42:32;4.40;99.90
21811;DHT22;11067;48.788;9.208;2023-04-03T05:44:58;4.50;99.90
21811;DHT22;11067;48.788;9.208;2023-04-03T05:47:23;4.40;99.90
21811;DHT22;11067;48.788;9.208;2023-04-03T05:49:49;4.30;99.90
21811;DHT22;11067;48.788;9.208;2023-04-03T05:52:29;4.20;99.90
21811;DHT22;11067;48.788;9.208;2023-04-03T05:54:56;4.20;99.90
21811;DHT22;11067;48.788;9.208;2023-04-03T05:57:22;4.30;99.90
21811;DHT22;11067;48.788;9.208;2023-04-03T05:59:47;4.30;99.90
21811;DHT22;11067;48.788;9.208;2023-04-03T06:02:15;4.30;99.90
21811;DHT22;11067;48.788;9.208;2023-04-03T06:04:41;4.30;99.90
21811;DHT22;11067;48.788;9.208;2023-04-03T06:07:11;4.20;99.90
21811;DHT22;11067;48.788;9.208;2023-04-03T06:09:37;4.10;99.90
21811;DHT22;11067;48.788;9.208;2023-04-03T06:12:03;4.40;99.90
21811;DHT22;11067;48.788;9.208;2023-04-03T06:14:28;4.50;99.90
21811;DHT22;11067;48.788;9.208;2023-04-03T06:16:54;4.40;99.90
21811;DHT22;11067;48.788;9.208;2023-04-03T06:19:20;4.50;99.90
21811;DHT22;11067;48.788;9.208;2023-04-03T06:21:46;4.50;99.90
21811;DHT22;11067;48.788;9.208;2023-04-03T06:24:14;4.50;99.90
21811;DHT22;11067;48.788;9.208;2023-04-03T06:26:40;4.50;99.90
21811;DHT22;11067;48.788;9.208;2023-04-03T06:29:06;4.60;99.90
21811;DHT22;11067;48.788;9.208;2023-04-03T06:31:31;4.80;99.90
21811;DHT22;11067;48.788;9.208;2023-04-03T06:33:57;4.80;99.90
21811;DHT22;11067;48.788;9.208;2023-04-03T06:36:23;4.90;99.90
21811;DHT22;11067;48.788;9.208;2023-04-03T06:38:48;4.80;99.90
21811;DHT22;11067;48.788;9.208;2023-04-03T06:41:14;4.90;99.90
21811;DHT22;11067;48.788;9.208;2023-04-03T06:43:42;4.80;99.90
21811;DHT22;11067;48.788;9.208;2023-04-03T06:46:16;4.80;99.90
21811;DHT22;11067;48.788;9.208;2023-04-03T06:48:42;4.70;99.90
21811;DHT22;11067;48.788;9.208;2023-04-03T06:51:17;4.70;99.90
21811;DHT22;11067;48.788;9.208;2023-04-03T06:53:43;4.80;99.90
21811;DHT22;11067;48.788;9.208;2023-04-03T06:56:08;4.90;99.90
21811;DHT22;11067;48.788;9.208;2023-04-03T06:58:35;4.80;99.90
21811;DHT22;11067;48.788;9.208;2023-04-03T07:01:01;4.80;99.90
21811;DHT22;11067;48.788;9.208;2023-04-03T07:03:26;4.90;99.90
21811;DHT22;11067;48.788;9.208;2023-04-03T07:05:52;5.00;99.90
21811;DHT22;11067;48.788;9.208;2023-04-03T07:08:18;4.90;99.90
21811;DHT22;11067;48.788;9.208;2023-04-03T07:10:44;4.70;99.90
21811;DHT22;11067;48.788;9.208;2023-04-03T07:13:09;4.70;99.90
21811;DHT22;11067;48.788;9.208;2023-04-03T07:15:35;4.60;99.90
21811;DHT22;11067;48.788;9.208;2023-04-03T07:18:01;4.90;99.90
21811;DHT22;11067;48.788;9.208;2023-04-03T07:20:27;5.00;99.90
21811;DHT22;11067;48.788;9.208;2023-04-03T07:22:52;4.80;99.90
21811;DHT22;11067;48.788;9.208;2023-04-03T07:25:18;4.90;99.90
21811;DHT22;11067;48.788;9.208;2023-04-03T07:27:43;5.00;99.90
21811;DHT22;11067;48.788;9.208;2023-04-03T07:30:09;5.00;99.90
21811;DHT22;11067;48.788;9.208;2023-04-03T07:32:35;5.10;99.90
21811;DHT22;11067;48.788;9.208;2023-04-03T07:35:01;5.20;99.90
21811;DHT22;11067;48.788;9.208;2023-04-03T07:37:26;5.40;99.90
21811;DHT22;11067;48.788;9.208;2023-04-03T07:39:52;5.50;99.90
21811;DHT22;11067;48.788;9.208;2023-04-03T07:42:17;5.60;99.90
21811;DHT22;11067;48.788;9.208;2023-04-03T07:44:43;5.40;99.90
21811;DHT22;11067;48.788;9.208;2023-04-03T07:47:09;5.30;99.90
21811;DHT22;11067;48.788;9.208;2023-04-03T07:49:34;5.40;99.90
21811;DHT22;11067;48.788;9.208;2023-04-03T07:52:03;5.20;99.90
21811;DHT22;11067;48.788;9.208;2023-04-03T07:54:29;5.20;99.90
21811;DHT22;11067;48.788;9.208;2023-04-03T07:56:55;5.50;99.90
21811;DHT22;11067;48.788;9.208;2023-04-03T07:59:22;5.60;99.90
21811;DHT22;11067;48.788;9.208;2023-04-03T08:01:47;5.60;99.90
21811;DHT22;11067;48.788;9.208;2023-04-03T08:04:13;5.70;99.90
21811;DHT22;11067;48.788;9.208;2023-04-03T08:06:38;5.50;99.90
21811;DHT22;11067;48.788;9.208;2023-04-03T08:09:04;5.70;99.90
21811;DHT22;11067;48.788;9.208;2023-04-03T08:11:29;5.70;99.90
21811;DHT22;11067;48.788;9.208;2023-04-03T08:13:56;5.90;99.90
21811;DHT22;11067;48.788;9.208;2023-04-03T08:16:23;6.10;99.90
21811;DHT22;11067;48.788;9.208;2023-04-03T08:18:51;6.10;99.90
21811;DHT22;11067;48.788;9.208;2023-04-03T08:21:16;6.20;99.90
21811;DHT22;11067;48.788;9.208;2023-04-03T08:23:42;6.10;99.90
21811;DHT22;11067;48.788;9.208;2023-04-03T08:26:09;5.80;99.90
21811;DHT22;11067;48.788;9.208;2023-04-03T08:28:35;5.80;99.90
21811;DHT22;11067;48.788;9.208;2023-04-03T08:31:10;6.10;99.90
21811;DHT22;11067;48.788;9.208;2023-04-03T08:33:38;5.90;99.90
21811;DHT22;11067;48.788;9.208;2023-04-03T08:36:05;5.90;99.90
21811;DHT22;11067;48.788;9.208;2023-04-03T08:38:31;5.70;99.90
21811;DHT22;11067;48.788;9.208;2023-04-03T08:41:30;5.90;99.90
21811;DHT22;11067;48.788;9.208;2023-04-03T08:49:33;6.20;99.90
21811;DHT22;11067;48.788;9.208;2023-04-03T08:52:04;6.40;99.90
21811;DHT22;11067;48.788;9.208;2023-04-03T08:54:34;6.20;99.90
21811;DHT22;11067;48.788;9.208;2023-04-03T08:57:03;6.40;99.90
21811;DHT22;11067;48.788;9.208;2023-04-03T08:59:34;6.40;99.90
21811;DHT22;11067;48.788;9.208;2023-04-03T09:02:04;6.20;99.90
21811;DHT22;11067;48.788;9.208;2023-04-03T09:04:37;6.20;99.90
21811;DHT22;11067;48.788;9.208;2023-04-03T09:07:09;6.50;99.90
21811;DHT22;11067;48.788;9.208;2023-04-03T09:09:40;6.50;99.90
21811;DHT22;11067;48.788;9.208;2023-04-03T09:15:08;6.80;99.90
21811;DHT22;11067;48.788;9.208;2023-04-03T09:25:50;6.30;99.90
21811;DHT22;11067;48.788;9.208;2023-04-03T10:14:24;6.30;99.90
21811;DHT22;11067;48.788;9.208;2023-04-03T10:16:59;6.90;99.90
21811;DHT22;11067;48.788;9.208;2023-04-03T10:22:43;7.40;99.90
21811;DHT22;11067;48.788;9.208;2023-04-03T10:25:26;7.10;99.90
21811;DHT22;11067;48.788;9.208;2023-04-03T10:28:02;7.00;99.90
21811;DHT22;11067;48.788;9.208;2023-04-03T10:35:48;6.70;99.90
21811;DHT22;11067;48.788;9.208;2023-04-03T10:43:42;6.50;99.90
21811;DHT22;11067;48.788;9.208;2023-04-03T10:48:52;6.90;99.90
21811;DHT22;11067;48.788;9.208;2023-04-03T10:51:51;7.10;99.90
21811;DHT22;11067;48.788;9.208;2023-04-03T10:54:45;7.50;99.90
21811;DHT22;11067;48.788;9.208;2023-04-03T10:57:12;7.10;99.90
21811;DHT22;11067;48.788;9.208;2023-04-03T10:59:50;6.60;99.90
21811;DHT22;11067;48.788;9.208;2023-04-03T11:02:19;6.60;99.90
21811;DHT22;11067;48.788;9.208;2023-04-03T11:04:51;6.70;99.90
21811;DHT22;11067;48.788;9.208;2023-04-03T11:07:23;6.70;99.90
21811;DHT22;11067;48.788;9.208;2023-04-03T11:09:53;6.80;99.90
21811;DHT22;11067;48.788;9.208;2023-04-03T11:15:02;7.30;99.90
21811;DHT22;11067;48.788;9.208;2023-04-03T11:17:35;7.40;99.90
21811;DHT22;11067;48.788;9.208;2023-04-03T11:22:58;7.50;99.90
21811;DHT22;11067;48.788;9.208;2023-04-03T11:25:26;7.20;99.90
21811;DHT22;11067;48.788;9.208;2023-04-03T11:27:57;7.10;99.90
21811;DHT22;11067;48.788;9.208;2023-04-03T11:35:58;7.20;99.90
21811;DHT22;11067;48.788;9.208;2023-04-03T11:38:28;7.30;99.90
21811;DHT22;11067;48.788;9.208;2023-04-03T11:40:56;7.30;99.90
21811;DHT22;11067;48.788;9.208;2023-04-03T11:43:28;7.40;99.90
21811;DHT22;11067;48.788;9.208;2023-04-03T11:45:56;7.40;99.90
21811;DHT22;11067;48.788;9.208;2023-04-03T11:51:37;7.40;99.90
21811;DHT22;11067;48.788;9.208;2023-04-03T11:53:46;7.30;99.90
21811;DHT22;11067;48.788;9.208;2023-04-03T12:01:44;7.20;99.90
21811;DHT22;11067;48.788;9.208;2023-04-03T12:04:12;6.90;99.90
21811;DHT22;11067;48.788;9.208;2023-04-03T12:12:34;7.60;99.90
21811;DHT22;11067;48.788;9.208;2023-04-03T12:21:03;6.90;99.90
21811;DHT22;11067;48.788;9.208;2023-04-03T12:23:34;7.20;99.90
21811;DHT22;11067;48.788;9.208;2023-04-03T12:26:19;7.40;99.90
21811;DHT22;11067;48.788;9.208;2023-04-03T12:28:45;7.60;99.90
21811;DHT22;11067;48.788;9.208;2023-04-03T12:31:12;7.80;99.90
21811;DHT22;11067;48.788;9.208;2023-04-03T12:33:57;7.50;99.90
21811;DHT22;11067;48.788;9.208;2023-04-03T12:42:13;7.50;99.90
21811;DHT22;11067;48.788;9.208;2023-04-03T12:47:37;7.30;99.90
21811;DHT22;11067;48.788;9.208;2023-04-03T12:50:27;7.00;99.90
21811;DHT22;11067;48.788;9.208;2023-04-03T12:53:12;7.20;99.90
21811;DHT22;11067;48.788;9.208;2023-04-03T12:55:38;7.10;99.90
21811;DHT22;11067;48.788;9.208;2023-04-03T12:58:24;6.90;99.90
21811;DHT22;11067;48.788;9.208;2023-04-03T13:01:01;7.10;99.90
21811;DHT22;11067;48.788;9.208;2023-04-03T13:03:27;7.00;99.90
21811;DHT22;11067;48.788;9.208;2023-04-03T13:05:59;7.00;99.90
21811;DHT22;11067;48.788;9.208;2023-04-03T13:08:26;7.40;99.90
21811;DHT22;11067;48.788;9.208;2023-04-03T13:11:01;7.60;99.90
21811;DHT22;11067;48.788;9.208;2023-04-03T13:13:28;7.90;99.90
21811;DHT22;11067;48.788;9.208;2023-04-03T13:15:54;7.90;99.90
21811;DHT22;11067;48.788;9.208;2023-04-03T13:18:35;8.00;99.90
21811;DHT22;11067;48.788;9.208;2023-04-03T13:21:15;7.40;99.90
21811;DHT22;11067;48.788;9.208;2023-04-03T13:23:46;7.30;99.90
21811;DHT22;11067;48.788;9.208;2023-04-03T13:26:12;7.40;99.90
21811;DHT22;11067;48.788;9.208;2023-04-03T13:28:42;7.60;99.90
21811;DHT22;11067;48.788;9.208;2023-04-03T13:33:59;7.50;99.90
21811;DHT22;11067;48.788;9.208;2023-04-03T13:36:33;7.40;99.90
21811;DHT22;11067;48.788;9.208;2023-04-03T13:39:22;7.60;99.90
21811;DHT22;11067;48.788;9.208;2023-04-03T13:41:51;8.10;99.90
21811;DHT22;11067;48.788;9.208;2023-04-03T13:44:26;8.30;99.90
21811;DHT22;11067;48.788;9.208;2023-04-03T13:47:00;8.50;99.90
21811;DHT22;11067;48.788;9.208;2023-04-03T13:51:55;8.40;99.90
21811;DHT22;11067;48.788;9.208;2023-04-03T13:54:25;8.40;99.90
21811;DHT22;11067;48.788;9.208;2023-04-03T13:56:56;8.40;99.90
21811;DHT22;11067;48.788;9.208;2023-04-03T13:59:34;8.40;99.90
21811;DHT22;11067;48.788;9.208;2023-04-03T14:07:07;8.30;99.90
21811;DHT22;11067;48.788;9.208;2023-04-03T14:09:33;8.20;99.90
21811;DHT22;11067;48.788;9.208;2023-04-03T14:12:34;8.20;99.90
21811;DHT22;11067;48.788;9.208;2023-04-03T14:15:11;8.30;99.90
21811;DHT22;11067;48.788;9.208;2023-04-03T14:17:37;8.40;99.90
21811;DHT22;11067;48.788;9.208;2023-04-03T14:20:04;8.10;99.90
21811;DHT22;11067;48.788;9.208;2023-04-03T14:22:32;8.30;99.90
21811;DHT22;11067;48.788;9.208;2023-04-03T14:25:00;8.20;99.90
21811;DHT22;11067;48.788;9.208;2023-04-03T14:27:35;8.10;99.90
21811;DHT22;11067;48.788;9.208;2023-04-03T14:30:02;8.20;99.90
21811;DHT22;11067;48.788;9.208;2023-04-03T14:32:29;7.90;99.90
21811;DHT22;11067;48.788;9.208;2023-04-03T14:34:55;8.10;99.90
21811;DHT22;11067;48.788;9.208;2023-04-03T14:37:25;8.10;99.90
21811;DHT22;11067;48.788;9.208;2023-04-03T14:39:53;8.40;99.90
21811;DHT22;11067;48.788;9.208;2023-04-03T14:42:24;8.50;99.90
21811;DHT22;11067;48.788;9.208;2023-04-03T14:44:51;8.60;99.90
21811;DHT22;11067;48.788;9.208;2023-04-03T14:47:22;8.50;99.90
21811;DHT22;11067;48.788;9.208;2023-04-03T14:49:48;8.00;99.90
21811;DHT22;11067;48.788;9.208;2023-04-03T14:52:29;8.20;99.90
21811;DHT22;11067;48.788;9.208;2023-04-03T14:54:55;8.30;99.90
21811;DHT22;11067;48.788;9.208;2023-04-03T14:57:24;8.20;99.90
21811;DHT22;11067;48.788;9.208;2023-04-03T14:59:50;7.90;99.90
21811;DHT22;11067;48.788;9.208;2023-04-03T15:02:34;8.00;99.90
21811;DHT22;11067;48.788;9.208;2023-04-03T15:05:02;7.80;99.90
21811;DHT22;11067;48.788;9.208;2023-04-03T15:07:31;7.50;99.90
21811;DHT22;11067;48.788;9.208;2023-04-03T15:09:58;7.30;99.90
21811;DHT22;11067;48.788;9.208;2023-04-03T15:12:25;7.40;99.90
21811;DHT22;11067;48.788;9.208;2023-04-03T15:14:50;7.60;99.90
21811;DHT22;11067;48.788;9.208;2023-04-03T15:17:18;7.80;99.90
21811;DHT22;11067;48.788;9.208;2023-04-03T15:19:45;7.90;99.90
21811;DHT22;11067;48.788;9.208;2023-04-03T15:22:16;7.70;99.90
21811;DHT22;11067;48.788;9.208;2023-04-03T15:24:42;7.70;99.90
21811;DHT22;11067;48.788;9.208;2023-04-03T15:27:09;7.80;99.90
21811;DHT22;11067;48.788;9.208;2023-04-03T15:29:35;7.60;99.90
21811;DHT22;11067;48.788;9.208;2023-04-03T15:32:00;7.50;99.90
21811;DHT22;11067;48.788;9.208;2023-04-03T15:34:26;7.70;99.90
21811;DHT22;11067;48.788;9.208;2023-04-03T15:36:52;7.80;99.90
21811;DHT22;11067;48.788;9.208;2023-04-03T15:39:18;7.60;99.90
21811;DHT22;11067;48.788;9.208;2023-04-03T15:41:44;7.50;99.90
21811;DHT22;11067;48.788;9.208;2023-04-03T15:44:10;7.10;99.90
21811;DHT22;11067;48.788;9.208;2023-04-03T15:46:37;7.10;99.90
21811;DHT22;11067;48.788;9.208;2023-04-03T15:49:04;7.20;99.90
21811;DHT22;11067;48.788;9.208;2023-04-03T15:51:30;7.30;99.90
21811;DHT22;11067;48.788;9.208;2023-04-03T15:53:56;7.40;99.90
21811;DHT22;11067;48.788;9.208;2023-04-03T15:56:21;7.50;99.90
21811;DHT22;11067;48.788;9.208;2023-04-03T15:58:47;7.40;99.90
21811;DHT22;11067;48.788;9.208;2023-04-03T16:01:12;7.40;99.90
21811;DHT22;11067;48.788;9.208;2023-04-03T16:03:40;7.40;99.90
21811;DHT22;11067;48.788;9.208;2023-04-03T16:06:11;7.30;99.90
21811;DHT22;11067;48.788;9.208;2023-04-03T16:08:37;7.20;99.90
21811;DHT22;11067;48.788;9.208;2023-04-03T16:11:02;7.30;99.90
21811;DHT22;11067;48.788;9.208;2023-04-03T16:13:28;7.40;99.90
21811;DHT22;11067;48.788;9.208;2023-04-03T16:15:54;7.70;99.90
21811;DHT22;11067;48.788;9.208;2023-04-03T16:18:20;7.50;99.90
21811;DHT22;11067;48.788;9.208;2023-04-03T16:20:46;7.40;99.90
21811;DHT22;11067;48.788;9.208;2023-04-03T16:23:12;7.30;99.90
21811;DHT22;11067;48.788;9.208;2023-04-03T16:25:37;7.20;99.90
21811;DHT22;11067;48.788;9.208;2023-04-03T16:28:03;7.20;99.90
21811;DHT22;11067;48.788;9.208;2023-04-03T16:30:29;7.20;99.90
21811;DHT22;11067;48.788;9.208;2023-04-03T16:32:55;7.20;99.90
21811;DHT22;11067;48.788;9.208;2023-04-03T16:35:21;7.30;99.90
21811;DHT22;11067;48.788;9.208;2023-04-03T16:37:47;7.30;99.90
21811;DHT22;11067;48.788;9.208;2023-04-03T16:40:13;7.30;99.90
21811;DHT22;11067;48.788;9.208;2023-04-03T16:42:39;7.40;99.90
21811;DHT22;11067;48.788;9.208;2023-04-03T16:45:05;7.30;99.90
21811;DHT22;11067;48.788;9.208;2023-04-03T16:47:31;7.40;99.90
21811;DHT22;11067;48.788;9.208;2023-04-03T16:49:57;7.40;99.90
21811;DHT22;11067;48.788;9.208;2023-04-03T16:52:22;7.50;99.90
21811;DHT22;11067;48.788;9.208;2023-04-03T16:54:48;7.50;99.90
21811;DHT22;11067;48.788;9.208;2023-04-03T16:57:13;7.50;99.90
21811;DHT22;11067;48.788;9.208;2023-04-03T16:59:39;7.50;99.90
21811;DHT22;11067;48.788;9.208;2023-04-03T17:02:04;7.60;99.90
21811;DHT22;11067;48.788;9.208;2023-04-03T17:04:30;7.60;99.90
21811;DHT22;11067;48.788;9.208;2023-04-03T17:06:56;7.60;99.90
21811;DHT22;11067;48.788;9.208;2023-04-03T17:09:22;7.60;99.90
21811;DHT22;11067;48.788;9.208;2023-04-03T17:11:48;7.60;99.90
21811;DHT22;11067;48.788;9.208;2023-04-03T17:14:14;7.50;99.90
21811;DHT22;11067;48.788;9.208;2023-04-03T17:16:39;7.50;99.90
21811;DHT22;11067;48.788;9.208;2023-04-03T17:19:05;7.30;99.90
21811;DHT22;11067;48.788;9.208;2023-04-03T17:21:32;7.30;99.90
21811;DHT22;11067;48.788;9.208;2023-04-03T17:24:01;7.20;99.90
21811;DHT22;11067;48.788;9.208;2023-04-03T17:26:27;7.20;99.90
21811;DHT22;11067;48.788;9.208;2023-04-03T17:28:53;7.10;99.90
21811;DHT22;11067;48.788;9.208;2023-04-03T17:31:19;7.10;99.90
21811;DHT22;11067;48.788;9.208;2023-04-03T17:33:45;7.00;99.90
21811;DHT22;11067;48.788;9.208;2023-04-03T17:36:10;7.00;99.90
21811;DHT22;11067;48.788;9.208;2023-04-03T17:38:36;6.80;99.90
21811;DHT22;11067;48.788;9.208;2023-04-03T17:41:04;6.70;99.90
21811;DHT22;11067;48.788;9.208;2023-04-03T17:43:31;6.60;99.90
21811;DHT22;11067;48.788;9.208;2023-04-03T17:46:04;6.60;99.90
21811;DHT22;11067;48.788;9.208;2023-04-03T17:48:31;6.50;99.90
21811;DHT22;11067;48.788;9.208;2023-04-03T17:50:57;6.50;99.90
21811;DHT22;11067;48.788;9.208;2023-04-03T17:53:23;6.50;99.90
21811;DHT22;11067;48.788;9.208;2023-04-03T17:55:51;6.50;99.90
21811;DHT22;11067;48.788;9.208;2023-04-03T17:58:17;6.40;99.90
21811;DHT22;11067;48.788;9.208;2023-04-03T18:00:43;6.50;99.90
21811;DHT22;11067;48.788;9.208;2023-04-03T18:03:08;6.50;99.90